createdAt,value
2023-02-18T00:00:02.507Z,100972.16
2023-02-18T00:03:13.910Z,100966.16
2023-02-18T00:06:23.290Z,100981.03
2023-02-18T00:09:30.596Z,100974.16
2023-02-18T00:12:42.703Z,100972.66
2023-02-18T00:15:54.520Z,100972.56
2023-02-18T00:18:59.246Z,100970.69
2023-02-18T00:22:02.602Z,100970.06
2023-02-18T00:25:11.301Z,100977.16
2023-02-18T00:28:17.889Z,100981.50
2023-02-18T00:31:26.725Z,100981.50
2023-02-18T00:34:35.546Z,100992.78
2023-02-18T00:37:40.157Z,100987.97
2023-02-18T00:40:46.236Z,101014.16
2023-02-18T00:43:56.749Z,100986.47
2023-02-18T00:47:03.436Z,101016.16
2023-02-18T00:50:12.690Z,101006.94
2023-02-18T00:53:17.369Z,101018.22
2023-02-18T00:56:29.369Z,101010.63
2023-02-18T00:59:40.069Z,101025.34
2023-02-18T01:02:49.169Z,101018.94
2023-02-18T01:05:53.394Z,101011.19
2023-02-18T01:08:58.776Z,101020.03
2023-02-18T01:12:05.011Z,101011.66
2023-02-18T01:15:18.759Z,100990.66
2023-02-18T01:18:22.647Z,101002.81
2023-02-18T01:21:29.944Z,100997.81
2023-02-18T01:24:33.109Z,100997.94
2023-02-18T01:27:40.178Z,101008.38
2023-02-18T01:30:47.202Z,101004.13
2023-02-18T01:33:53.424Z,101009.28
2023-02-18T01:36:57.804Z,101014.38
2023-02-18T01:40:03.353Z,101006.91
2023-02-18T01:43:16.945Z,101012.72
2023-02-18T01:46:25.412Z,100999.06
2023-02-18T01:49:37.721Z,101002.56
2023-02-18T01:52:42.260Z,101011.38
2023-02-18T01:55:57.693Z,101019.78
2023-02-18T01:59:10.039Z,101015.59
2023-02-18T02:02:23.230Z,101002.97
2023-02-18T02:05:31.982Z,101006.38
2023-02-18T02:08:39.205Z,101002.75
2023-02-18T02:12:23.685Z,101014.06
2023-02-18T02:15:54.917Z,101012.38
2023-02-18T02:19:35.458Z,101020.91
2023-02-18T02:23:26.258Z,101009.88
2023-02-18T02:27:15.460Z,101000.38
2023-02-18T02:30:59.726Z,101021.19
2023-02-18T02:34:54.205Z,101012.69
2023-02-18T02:38:04.528Z,101024.00
2023-02-18T02:41:23.523Z,101022.25
2023-02-18T02:44:36.374Z,101016.94
2023-02-18T02:47:49.960Z,101028.19
2023-02-18T02:51:02.891Z,101028.41
2023-02-18T02:54:17.525Z,101026.78
2023-02-18T02:57:53.214Z,101030.28
2023-02-18T03:01:28.285Z,101015.31
2023-02-18T03:05:05.095Z,101035.16
2023-02-18T03:08:36.464Z,101035.34
2023-02-18T03:11:50.584Z,101028.34
2023-02-18T03:15:05.625Z,101026.78
2023-02-18T03:18:26.629Z,101025.00
2023-02-18T03:21:38.185Z,101016.59
2023-02-18T03:24:48.136Z,101032.75
2023-02-18T03:27:57.618Z,101033.25
2023-02-18T03:31:08.214Z,101027.09
2023-02-18T03:34:15.531Z,101012.97
2023-02-18T03:37:23.454Z,101004.97
2023-02-18T03:40:29.501Z,101017.22
2023-02-18T03:43:34.904Z,101018.97
2023-02-18T03:46:43.140Z,101011.91
2023-02-18T03:49:46.548Z,101021.50
2023-02-18T03:52:50.768Z,101015.56
2023-02-18T03:55:58.038Z,101010.38
2023-02-18T03:59:02.938Z,101014.66
2023-02-18T04:02:06.470Z,101017.16
2023-02-18T04:05:10.315Z,101035.16
2023-02-18T04:08:13.410Z,101015.78
2023-02-18T04:11:20.765Z,101028.63
2023-02-18T04:14:24.463Z,101025.13
2023-02-18T04:17:28.067Z,101029.66
2023-02-18T04:20:33.980Z,101039.25
2023-02-18T04:23:40.506Z,101036.53
2023-02-18T04:26:45.130Z,101040.31
2023-02-18T04:29:48.238Z,101040.59
2023-02-18T04:32:51.330Z,101037.09
2023-02-18T04:35:54.523Z,101049.25
2023-02-18T04:39:00.376Z,101055.34
2023-02-18T04:42:08.906Z,101045.00
2023-02-18T04:45:21.099Z,101051.09
2023-02-18T04:48:24.362Z,101041.00
2023-02-18T04:51:29.648Z,101053.78
2023-02-18T04:54:35.916Z,101058.84
2023-02-18T04:57:40.623Z,101050.94
2023-02-18T05:00:46.750Z,101055.75
2023-02-18T05:03:49.857Z,101060.78
2023-02-18T05:06:53.006Z,101064.41
2023-02-18T05:09:56.821Z,101054.09
2023-02-18T05:13:01.869Z,101051.41
2023-02-18T05:16:06.020Z,101046.97
2023-02-18T05:19:15.534Z,101052.06
2023-02-18T05:22:18.718Z,101048.72
2023-02-18T05:25:21.927Z,101054.72
2023-02-18T05:28:27.194Z,101045.22
2023-02-18T05:31:30.284Z,101048.50
2023-02-18T05:34:36.289Z,101051.69
2023-02-18T05:37:39.327Z,101029.19
2023-02-18T05:40:42.453Z,101037.72
2023-02-18T05:44:07.374Z,101033.34
2023-02-18T05:47:13.217Z,101032.13
2023-02-18T05:50:16.565Z,101019.19
2023-02-18T05:53:22.062Z,101025.13
2023-02-18T05:56:29.576Z,101026.75
2023-02-18T05:59:34.159Z,101021.34
2023-02-18T06:02:41.874Z,101026.25
2023-02-18T06:05:46.975Z,101025.41
2023-02-18T06:08:50.417Z,101037.97
2023-02-18T06:11:53.485Z,101024.91
2023-02-18T06:14:58.022Z,101033.69
2023-02-18T06:18:10.036Z,101035.91
2023-02-18T06:21:13.192Z,101023.97
2023-02-18T06:24:16.334Z,101023.28
2023-02-18T06:27:22.251Z,101029.91
2023-02-18T06:30:26.692Z,101025.34
2023-02-18T06:33:29.789Z,101025.34
2023-02-18T06:36:32.969Z,101021.84
2023-02-18T06:39:37.901Z,101033.03
2023-02-18T06:42:42.671Z,101022.75
2023-02-18T06:45:53.826Z,101018.50
2023-02-18T06:49:03.986Z,101019.47
2023-02-18T06:52:12.657Z,101009.81
2023-02-18T06:55:18.257Z,101001.94
2023-02-18T06:58:25.585Z,101005.34
2023-02-18T07:01:31.248Z,101012.03
2023-02-18T07:04:37.127Z,101018.03
2023-02-18T07:07:44.902Z,101011.81
2023-02-18T07:10:49.487Z,100996.13
2023-02-18T07:13:53.036Z,101002.16
2023-02-18T07:17:01.032Z,100990.03
2023-02-18T07:20:21.405Z,100998.41
2023-02-18T07:23:28.089Z,100994.78
2023-02-18T07:26:35.379Z,100998.81
2023-02-18T07:30:03.784Z,100977.88
2023-02-18T07:33:22.710Z,100973.44
2023-02-18T07:36:39.374Z,100981.22
2023-02-18T07:39:57.419Z,100983.47
2023-02-18T07:43:00.964Z,100987.00
2023-02-18T07:46:10.765Z,100969.53
2023-02-18T07:49:15.812Z,100969.63
2023-02-18T07:52:21.039Z,100968.88
2023-02-18T07:55:46.649Z,100964.44
2023-02-18T07:58:49.888Z,100964.28
2023-02-18T08:01:53.271Z,100961.75
2023-02-18T08:04:57.949Z,100969.19
2023-02-18T08:08:01.013Z,100968.41
2023-02-18T08:11:18.118Z,100966.91
2023-02-18T08:14:25.182Z,100951.50
2023-02-18T08:17:31.391Z,100947.16
2023-02-18T08:20:41.925Z,100942.00
2023-02-18T08:23:45.711Z,100931.81
2023-02-18T08:27:00.303Z,100937.97
2023-02-18T08:30:14.826Z,100936.44
2023-02-18T08:33:23.732Z,100927.84
2023-02-18T08:40:10.947Z,100917.88
2023-02-18T08:43:21.869Z,100906.94
2023-02-18T08:46:34.835Z,100915.00
2023-02-18T08:49:50.469Z,100910.50
2023-02-18T08:53:07.188Z,100901.28
2023-02-18T08:56:19.194Z,100903.88
2023-02-18T08:59:34.083Z,100898.25
2023-02-18T09:03:11.292Z,100900.16
2023-02-18T09:06:49.941Z,100885.41
2023-02-18T09:09:59.563Z,100878.41
2023-02-18T09:17:25.964Z,100856.34
2023-02-18T09:20:32.358Z,100844.25
2023-02-18T09:23:52.846Z,100837.41
2023-02-18T09:27:16.228Z,100827.81
2023-02-18T09:30:33.919Z,100834.19
2023-02-18T09:33:47.657Z,100816.69
2023-02-18T09:36:59.924Z,100818.34
2023-02-18T09:43:46.309Z,100797.25
2023-02-18T09:47:03.501Z,100780.28
2023-02-18T09:50:26.643Z,100767.13
2023-02-18T09:57:45.471Z,100741.09
2023-02-18T10:00:57.394Z,100723.03
2023-02-18T10:04:28.445Z,100722.16
2023-02-18T10:08:20.014Z,100717.03
2023-02-18T10:12:13.450Z,100713.19
2023-02-18T10:15:34.909Z,100702.53
2023-02-18T10:19:44.249Z,100702.75
2023-02-18T10:23:19.849Z,100698.66
2023-02-18T10:26:55.697Z,100670.28
2023-02-18T10:30:11.759Z,100662.97
2023-02-18T10:33:41.744Z,100635.25
2023-02-18T10:37:04.278Z,100627.00
2023-02-18T10:40:20.690Z,100609.63
2023-02-18T10:43:36.313Z,100583.06
2023-02-18T10:47:01.604Z,100569.88
2023-02-18T10:50:35.499Z,100561.38
2023-02-18T10:53:46.800Z,100549.63
2023-02-18T10:57:04.954Z,100545.75
2023-02-18T11:06:07.482Z,100514.31
2023-02-18T11:09:41.038Z,100493.59
2023-02-18T11:13:01.239Z,100476.69
2023-02-18T11:16:42.682Z,100464.47
2023-02-18T11:20:21.440Z,100449.16
2023-02-18T11:24:07.624Z,100434.94
2023-02-18T11:27:27.913Z,100428.00
2023-02-18T11:35:44.465Z,100412.56
2023-02-18T11:39:27.609Z,100398.34
2023-02-18T11:42:49.648Z,100387.63
2023-02-18T11:46:19.477Z,100384.84
2023-02-18T11:49:31.501Z,100365.81
2023-02-18T11:53:00.221Z,100360.16
2023-02-18T11:56:27.886Z,100357.31
2023-02-18T12:00:01.967Z,100331.03
2023-02-18T12:03:38.656Z,100319.97
2023-02-18T12:12:00.271Z,100284.09
2023-02-18T12:15:47.136Z,100285.19
2023-02-18T12:19:06.324Z,100275.09
2023-02-18T12:22:25.935Z,100269.50
2023-02-18T12:25:52.938Z,100260.03
2023-02-18T12:29:29.114Z,100256.63
2023-02-18T12:38:32.445Z,100240.19
2023-02-18T12:42:11.267Z,100226.50
2023-02-18T12:46:03.457Z,100216.97
2023-02-18T12:49:30.909Z,100209.13
2023-02-18T12:52:56.123Z,100207.75
2023-02-18T12:56:24.177Z,100195.88
2023-02-18T13:00:20.969Z,100183.00
2023-02-18T13:04:43.909Z,100174.97
2023-02-18T13:08:08.399Z,100162.13
2023-02-18T13:11:28.187Z,100159.69
2023-02-18T13:14:35.769Z,100158.41
2023-02-18T13:17:47.179Z,100149.19
2023-02-18T13:20:57.686Z,100145.41
2023-02-18T13:24:14.767Z,100142.56
2023-02-18T13:27:32.591Z,100137.13
2023-02-18T13:30:44.689Z,100129.78
2023-02-18T13:33:57.227Z,100145.41
2023-02-18T13:37:12.854Z,100155.34
2023-02-18T13:40:33.801Z,100142.19
2023-02-18T13:43:50.028Z,100145.16
2023-02-18T13:46:58.226Z,100149.31
2023-02-18T13:50:25.639Z,100150.13
2023-02-18T13:53:32.921Z,100141.38
2023-02-18T13:56:42.001Z,100145.97
2023-02-18T13:59:49.864Z,100138.06
2023-02-18T14:03:24.049Z,100146.84
2023-02-18T14:08:09.192Z,100139.03
2023-02-18T14:12:12.951Z,100135.56
2023-02-18T14:16:14.010Z,100124.47
2023-02-18T14:19:32.361Z,100118.91
2023-02-18T14:22:52.389Z,100136.44
2023-02-18T14:26:08.928Z,100137.81
2023-02-18T14:29:31.679Z,100129.00
2023-02-18T14:32:47.466Z,100141.88
2023-02-18T14:36:28.622Z,100125.53
2023-02-18T14:40:09.534Z,100125.31
2023-02-18T14:44:00.668Z,100130.75
2023-02-18T14:47:27.367Z,100126.94
2023-02-18T14:50:44.319Z,100141.88
2023-02-18T14:58:35.730Z,100166.94
2023-02-18T15:02:05.955Z,100162.94
2023-02-18T15:05:24.806Z,100160.34
2023-02-18T15:14:44.056Z,100182.41
2023-02-18T15:18:36.818Z,100161.03
2023-02-18T15:26:57.329Z,100150.84
2023-02-18T15:30:31.694Z,100171.34
2023-02-18T15:34:07.192Z,100187.06
2023-02-18T15:37:20.054Z,100187.41
2023-02-18T15:40:33.459Z,100219.94
2023-02-18T15:43:44.409Z,100209.53
2023-02-18T15:47:00.866Z,100197.81
2023-02-18T15:50:23.167Z,100256.41
2023-02-18T15:54:04.462Z,100263.50
2023-02-18T15:57:33.295Z,100262.78
2023-02-18T16:00:50.015Z,100268.72
2023-02-18T16:03:56.899Z,100280.41
2023-02-18T16:07:06.722Z,100276.84
2023-02-18T16:11:13.204Z,100300.16
2023-02-18T16:14:57.678Z,100320.41
2023-02-18T16:18:04.703Z,100310.81
2023-02-18T16:21:27.712Z,100329.25
2023-02-18T16:26:03.071Z,100321.44
2023-02-18T16:30:38.347Z,100343.59
2023-02-18T16:33:43.264Z,100348.06
2023-02-18T16:41:40.757Z,100329.31
2023-02-18T16:44:56.161Z,100381.34
2023-02-18T16:49:05.611Z,100385.22
2023-02-18T16:52:26.158Z,100413.91
2023-02-18T16:55:54.361Z,100426.47
2023-02-18T16:58:58.271Z,100432.13
2023-02-18T17:02:26.043Z,100445.81
2023-02-18T17:05:48.208Z,100459.19
2023-02-18T17:09:18.257Z,100453.81
2023-02-18T17:12:26.780Z,100473.31
2023-02-18T17:15:38.184Z,100486.69
2023-02-18T17:18:45.002Z,100495.56
2023-02-18T17:21:54.934Z,100512.25
2023-02-18T17:25:18.533Z,100523.22
2023-02-18T17:28:31.227Z,100529.69
2023-02-18T17:32:32.417Z,100551.00
2023-02-18T17:39:24.565Z,100556.91
2023-02-18T17:42:45.855Z,100575.25
2023-02-18T17:46:08.414Z,100579.97
2023-02-18T17:49:30.932Z,100585.22
2023-02-18T17:56:32.392Z,100596.78
2023-02-18T17:59:37.135Z,100604.28
2023-02-18T18:02:40.480Z,100604.66
2023-02-18T18:05:48.865Z,100609.84
2023-02-18T18:09:16.865Z,100618.63
2023-02-18T18:12:49.044Z,100615.13
2023-02-18T18:16:12.085Z,100621.84
2023-02-18T18:19:30.085Z,100636.25
2023-02-18T18:23:12.862Z,100649.31
2023-02-18T18:26:58.311Z,100666.63
2023-02-18T18:30:15.279Z,100660.69
2023-02-18T18:38:42.207Z,100691.56
2023-02-18T18:41:51.224Z,100688.19
2023-02-18T18:44:54.723Z,100697.81
2023-02-18T18:48:06.323Z,100697.41
2023-02-18T18:51:28.714Z,100701.84
2023-02-18T18:54:43.471Z,100714.22
2023-02-18T18:57:49.599Z,100727.41
2023-02-18T19:01:02.336Z,100740.00
2023-02-18T19:04:20.522Z,100742.09
2023-02-18T19:07:36.363Z,100759.47
2023-02-18T19:10:46.898Z,100753.47
2023-02-18T19:13:52.890Z,100762.28
2023-02-18T19:17:00.339Z,100760.03
2023-02-18T19:20:13.389Z,100767.03
2023-02-18T19:23:22.840Z,100764.28
2023-02-18T19:26:38.972Z,100774.97
2023-02-18T19:29:54.577Z,100781.06
2023-02-18T19:33:14.957Z,100779.31
2023-02-18T19:41:43.334Z,100787.44
2023-02-18T19:44:56.355Z,100789.16
2023-02-18T19:48:02.759Z,100791.78
2023-02-18T19:51:07.999Z,100797.81
2023-02-18T19:54:12.918Z,100794.31
2023-02-18T19:57:18.152Z,100801.31
2023-02-18T20:05:06.329Z,100811.97
2023-02-18T20:08:13.187Z,100817.00
2023-02-18T20:11:24.840Z,100817.00
2023-02-18T20:14:29.839Z,100818.81
2023-02-18T20:17:39.629Z,100815.41
2023-02-18T20:20:48.656Z,100820.66
2023-02-18T20:23:56.801Z,100823.84
2023-02-18T20:27:02.967Z,100823.69
2023-02-18T20:30:13.196Z,100832.34
2023-02-18T20:33:20.200Z,100834.19
2023-02-18T20:36:26.205Z,100839.50
2023-02-18T20:39:30.130Z,100853.22
2023-02-18T20:44:06.836Z,100841.50
2023-02-18T20:47:16.352Z,100851.19
2023-02-18T20:50:21.901Z,100851.09
2023-02-18T20:53:32.036Z,100848.66
2023-02-18T20:56:36.074Z,100846.06
2023-02-18T20:59:39.543Z,100848.66
2023-02-18T21:02:50.143Z,100852.16
2023-02-18T21:06:06.310Z,100845.72
2023-02-18T21:09:10.322Z,100850.81
2023-02-18T21:12:13.771Z,100857.94
2023-02-18T21:15:25.383Z,100853.69
2023-02-18T21:18:33.022Z,100861.28
2023-02-18T21:21:37.309Z,100852.78
2023-02-18T21:24:40.704Z,100854.44
2023-02-18T21:27:46.294Z,100857.13
2023-02-18T21:31:42.867Z,100868.28
2023-02-18T21:34:48.525Z,100862.19
2023-02-18T21:37:53.475Z,100864.97
2023-02-18T21:41:05.504Z,100860.94
2023-02-18T21:44:40.181Z,100860.75
2023-02-18T21:47:47.190Z,100866.75
2023-02-18T21:51:00.525Z,100866.94
2023-02-18T21:54:08.759Z,100858.38
2023-02-18T21:57:15.370Z,100865.53
2023-02-18T22:00:21.030Z,100867.53
2023-02-18T22:03:24.984Z,100861.66
2023-02-18T22:06:35.657Z,100871.31
2023-02-18T22:09:39.730Z,100874.34
2023-02-18T22:12:47.234Z,100877.47
2023-02-18T22:15:56.184Z,100879.16
2023-02-18T22:18:59.915Z,100878.31
2023-02-18T22:22:06.614Z,100890.47
2023-02-18T22:25:14.080Z,100896.69
2023-02-18T22:28:17.247Z,100901.66
2023-02-18T22:31:20.432Z,100899.34
2023-02-18T22:34:27.315Z,100897.00
2023-02-18T22:37:35.968Z,100902.88
2023-02-18T22:40:50.809Z,100904.72
2023-02-18T22:44:11.841Z,100903.31
2023-02-18T22:47:24.552Z,100898.44
2023-02-18T22:50:31.974Z,100905.13
2023-02-18T22:53:37.191Z,100896.47
2023-02-18T22:56:41.239Z,100895.09
2023-02-18T22:59:45.049Z,100895.81
2023-02-18T23:02:59.614Z,100895.09
2023-02-18T23:06:12.094Z,100899.34
2023-02-18T23:09:19.011Z,100898.50
2023-02-18T23:12:26.372Z,100900.81
2023-02-18T23:15:32.495Z,100890.34
2023-02-18T23:18:36.860Z,100891.13
2023-02-18T23:21:42.509Z,100892.84
2023-02-18T23:24:59.967Z,100889.59
2023-02-18T23:28:11.706Z,100894.59
2023-02-18T23:31:18.859Z,100901.94
2023-02-18T23:34:24.237Z,100900.25
2023-02-18T23:37:43.751Z,100887.84
2023-02-18T23:40:48.559Z,100897.41
2023-02-18T23:43:52.482Z,100899.13
2023-02-18T23:46:55.981Z,100899.09
2023-02-18T23:50:04.657Z,100891.34
2023-02-18T23:53:07.941Z,100890.34
2023-02-18T23:56:15.504Z,100890.88
2023-02-18T23:59:20.698Z,100890.22
